sensor_id;sensor_type;location;lat;lon;timestamp;temperature;humidity
52555;DHT22;38455;52.710;6.502;2023-12-04T00:01:21;0.60;99.90
52555;DHT22;38455;52.710;6.502;2023-12-04T00:03:47;0.60;99.90
52555;DHT22;38455;52.710;6.502;2023-12-04T00:06:13;0.60;99.90
52555;DHT22;38455;52.710;6.502;2023-12-04T00:08:39;0.60;99.90
52555;DHT22;38455;52.710;6.502;2023-12-04T00:11:05;0.70;99.90
52555;DHT22;38455;52.710;6.502;2023-12-04T00:13:31;0.70;99.90
52555;DHT22;38455;52.710;6.502;2023-12-04T00:15:57;0.70;99.90
52555;DHT22;38455;52.710;6.502;2023-12-04T00:18:22;0.70;99.90
52555;DHT22;38455;52.710;6.502;2023-12-04T00:20:48;0.70;99.90
52555;DHT22;38455;52.710;6.502;2023-12-04T00:23:14;0.70;99.90
52555;DHT22;38455;52.710;6.502;2023-12-04T00:25:39;0.70;99.90
52555;DHT22;38455;52.710;6.502;2023-12-04T00:28:05;0.70;99.90
52555;DHT22;38455;52.710;6.502;2023-12-04T00:30:30;0.70;99.90
52555;DHT22;38455;52.710;6.502;2023-12-04T00:32:56;0.70;99.90
52555;DHT22;38455;52.710;6.502;2023-12-04T00:35:22;0.70;99.90
52555;DHT22;38455;52.710;6.502;2023-12-04T00:37:47;0.70;99.90
52555;DHT22;38455;52.710;6.502;2023-12-04T00:40:13;0.70;99.90
52555;DHT22;38455;52.710;6.502;2023-12-04T00:42:39;0.70;99.90
52555;DHT22;38455;52.710;6.502;2023-12-04T00:45:05;0.70;99.90
52555;DHT22;38455;52.710;6.502;2023-12-04T00:47:31;0.70;99.90
52555;DHT22;38455;52.710;6.502;2023-12-04T00:49:56;0.70;99.90
52555;DHT22;38455;52.710;6.502;2023-12-04T00:52:22;0.80;99.90
52555;DHT22;38455;52.710;6.502;2023-12-04T00:54:47;0.70;99.90
52555;DHT22;38455;52.710;6.502;2023-12-04T00:57:13;0.70;99.90
52555;DHT22;38455;52.710;6.502;2023-12-04T00:59:39;0.70;99.90
52555;DHT22;38455;52.710;6.502;2023-12-04T01:02:06;0.70;99.90
52555;DHT22;38455;52.710;6.502;2023-12-04T01:04:32;0.70;99.90
52555;DHT22;38455;52.710;6.502;2023-12-04T01:06:57;0.80;99.90
52555;DHT22;38455;52.710;6.502;2023-12-04T01:09:23;0.70;99.90
52555;DHT22;38455;52.710;6.502;2023-12-04T01:11:53;0.70;99.90
52555;DHT22;38455;52.710;6.502;2023-12-04T01:14:19;0.80;99.90
52555;DHT22;38455;52.710;6.502;2023-12-04T01:16:45;0.80;99.90
52555;DHT22;38455;52.710;6.502;2023-12-04T01:19:11;0.80;99.90
52555;DHT22;38455;52.710;6.502;2023-12-04T01:21:36;0.80;99.90
52555;DHT22;38455;52.710;6.502;2023-12-04T01:24:02;0.80;99.90
52555;DHT22;38455;52.710;6.502;2023-12-04T01:26:28;0.80;99.90
52555;DHT22;38455;52.710;6.502;2023-12-04T01:28:53;0.80;99.90
52555;DHT22;38455;52.710;6.502;2023-12-04T01:31:19;0.80;99.90
52555;DHT22;38455;52.710;6.502;2023-12-04T01:33:44;0.80;99.90
52555;DHT22;38455;52.710;6.502;2023-12-04T01:36:10;0.80;99.90
52555;DHT22;38455;52.710;6.502;2023-12-04T01:38:37;0.90;99.90
52555;DHT22;38455;52.710;6.502;2023-12-04T01:41:03;0.90;99.90
52555;DHT22;38455;52.710;6.502;2023-12-04T01:43:29;0.90;99.90
52555;DHT22;38455;52.710;6.502;2023-12-04T01:45:54;0.90;99.90
52555;DHT22;38455;52.710;6.502;2023-12-04T01:48:20;0.90;99.90
52555;DHT22;38455;52.710;6.502;2023-12-04T01:50:47;1.00;99.90
52555;DHT22;38455;52.710;6.502;2023-12-04T01:53:13;0.90;99.90
52555;DHT22;38455;52.710;6.502;2023-12-04T01:55:39;0.90;99.90
52555;DHT22;38455;52.710;6.502;2023-12-04T01:58:06;0.90;99.90
52555;DHT22;38455;52.710;6.502;2023-12-04T02:00:32;0.90;99.90
52555;DHT22;38455;52.710;6.502;2023-12-04T02:02:59;0.90;99.90
52555;DHT22;38455;52.710;6.502;2023-12-04T02:05:26;0.90;99.90
52555;DHT22;38455;52.710;6.502;2023-12-04T02:07:52;0.90;99.90
52555;DHT22;38455;52.710;6.502;2023-12-04T02:10:18;1.00;99.90
52555;DHT22;38455;52.710;6.502;2023-12-04T02:12:44;1.00;99.90
52555;DHT22;38455;52.710;6.502;2023-12-04T02:15:10;1.00;99.90
52555;DHT22;38455;52.710;6.502;2023-12-04T02:17:36;1.00;99.90
52555;DHT22;38455;52.710;6.502;2023-12-04T02:20:02;1.00;99.90
52555;DHT22;38455;52.710;6.502;2023-12-04T02:22:29;1.00;99.90
52555;DHT22;38455;52.710;6.502;2023-12-04T02:24:55;1.00;99.90
52555;DHT22;38455;52.710;6.502;2023-12-04T02:27:28;1.00;99.90
52555;DHT22;38455;52.710;6.502;2023-12-04T02:29:59;1.00;99.90
52555;DHT22;38455;52.710;6.502;2023-12-04T02:32:29;1.00;99.90
52555;DHT22;38455;52.710;6.502;2023-12-04T02:34:56;1.00;99.90
52555;DHT22;38455;52.710;6.502;2023-12-04T02:37:23;1.00;99.90
52555;DHT22;38455;52.710;6.502;2023-12-04T02:39:50;1.00;99.90
52555;DHT22;38455;52.710;6.502;2023-12-04T02:42:18;1.00;99.90
52555;DHT22;38455;52.710;6.502;2023-12-04T02:44:44;1.00;99.90
52555;DHT22;38455;52.710;6.502;2023-12-04T02:47:10;1.00;99.90
52555;DHT22;38455;52.710;6.502;2023-12-04T02:49:36;1.00;99.90
52555;DHT22;38455;52.710;6.502;2023-12-04T02:52:02;1.00;99.90
52555;DHT22;38455;52.710;6.502;2023-12-04T02:54:28;1.00;99.90
52555;DHT22;38455;52.710;6.502;2023-12-04T02:56:54;1.00;99.90
52555;DHT22;38455;52.710;6.502;2023-12-04T02:59:19;1.00;99.90
52555;DHT22;38455;52.710;6.502;2023-12-04T03:01:45;1.00;99.90
52555;DHT22;38455;52.710;6.502;2023-12-04T03:04:11;1.00;99.90
52555;DHT22;38455;52.710;6.502;2023-12-04T03:06:36;1.00;99.90
52555;DHT22;38455;52.710;6.502;2023-12-04T03:09:03;1.00;99.90
52555;DHT22;38455;52.710;6.502;2023-12-04T03:11:29;1.00;99.90
52555;DHT22;38455;52.710;6.502;2023-12-04T03:13:55;1.00;99.90
52555;DHT22;38455;52.710;6.502;2023-12-04T03:16:20;1.00;99.90
52555;DHT22;38455;52.710;6.502;2023-12-04T03:18:46;1.00;99.90
52555;DHT22;38455;52.710;6.502;2023-12-04T03:21:12;1.00;99.90
52555;DHT22;38455;52.710;6.502;2023-12-04T03:23:37;1.00;99.90
52555;DHT22;38455;52.710;6.502;2023-12-04T03:26:03;1.00;99.90
52555;DHT22;38455;52.710;6.502;2023-12-04T03:28:29;1.00;99.90
52555;DHT22;38455;52.710;6.502;2023-12-04T03:30:55;1.00;99.90
52555;DHT22;38455;52.710;6.502;2023-12-04T03:33:20;1.00;99.90
52555;DHT22;38455;52.710;6.502;2023-12-04T03:35:46;1.00;99.90
52555;DHT22;38455;52.710;6.502;2023-12-04T03:38:12;1.10;99.90
52555;DHT22;38455;52.710;6.502;2023-12-04T03:40:38;1.10;99.90
52555;DHT22;38455;52.710;6.502;2023-12-04T03:43:03;1.10;99.90
52555;DHT22;38455;52.710;6.502;2023-12-04T03:45:29;1.10;99.90
52555;DHT22;38455;52.710;6.502;2023-12-04T03:47:55;1.10;99.90
52555;DHT22;38455;52.710;6.502;2023-12-04T03:50:21;1.10;99.90
52555;DHT22;38455;52.710;6.502;2023-12-04T03:52:46;1.10;99.90
52555;DHT22;38455;52.710;6.502;2023-12-04T03:55:12;1.10;99.90
52555;DHT22;38455;52.710;6.502;2023-12-04T03:57:37;1.10;99.90
52555;DHT22;38455;52.710;6.502;2023-12-04T04:00:04;1.10;99.90
52555;DHT22;38455;52.710;6.502;2023-12-04T04:02:30;1.10;99.90
52555;DHT22;38455;52.710;6.502;2023-12-04T04:04:55;1.10;99.90
52555;DHT22;38455;52.710;6.502;2023-12-04T04:07:21;1.10;99.90
52555;DHT22;38455;52.710;6.502;2023-12-04T04:09:47;1.10;99.90
52555;DHT22;38455;52.710;6.502;2023-12-04T04:12:12;1.10;99.90
52555;DHT22;38455;52.710;6.502;2023-12-04T04:14:38;1.10;99.90
52555;DHT22;38455;52.710;6.502;2023-12-04T04:17:04;1.10;99.90
52555;DHT22;38455;52.710;6.502;2023-12-04T04:19:30;1.10;99.90
52555;DHT22;38455;52.710;6.502;2023-12-04T04:21:55;1.10;99.90
52555;DHT22;38455;52.710;6.502;2023-12-04T04:24:21;1.10;99.90
52555;DHT22;38455;52.710;6.502;2023-12-04T04:26:46;1.10;99.90
52555;DHT22;38455;52.710;6.502;2023-12-04T04:29:12;1.10;99.90
52555;DHT22;38455;52.710;6.502;2023-12-04T04:31:38;1.20;99.90
52555;DHT22;38455;52.710;6.502;2023-12-04T04:34:04;1.10;99.90
52555;DHT22;38455;52.710;6.502;2023-12-04T04:36:29;1.10;99.90
52555;DHT22;38455;52.710;6.502;2023-12-04T04:38:55;1.10;99.90
52555;DHT22;38455;52.710;6.502;2023-12-04T04:41:21;1.10;99.90
52555;DHT22;38455;52.710;6.502;2023-12-04T04:43:46;1.10;99.90
52555;DHT22;38455;52.710;6.502;2023-12-04T04:46:12;1.10;99.90
52555;DHT22;38455;52.710;6.502;2023-12-04T04:48:39;1.20;99.90
52555;DHT22;38455;52.710;6.502;2023-12-04T04:51:05;1.20;99.90
52555;DHT22;38455;52.710;6.502;2023-12-04T04:53:30;1.20;99.90
52555;DHT22;38455;52.710;6.502;2023-12-04T04:55:56;1.20;99.90
52555;DHT22;38455;52.710;6.502;2023-12-04T04:58:21;1.20;99.90
52555;DHT22;38455;52.710;6.502;2023-12-04T05:00:47;1.10;99.90
52555;DHT22;38455;52.710;6.502;2023-12-04T05:03:13;1.20;99.90
52555;DHT22;38455;52.710;6.502;2023-12-04T05:05:38;1.20;99.90
52555;DHT22;38455;52.710;6.502;2023-12-04T05:08:04;1.20;99.90
52555;DHT22;38455;52.710;6.502;2023-12-04T05:10:30;1.20;99.90
52555;DHT22;38455;52.710;6.502;2023-12-04T05:12:55;1.30;99.90
52555;DHT22;38455;52.710;6.502;2023-12-04T05:15:21;1.20;99.90
52555;DHT22;38455;52.710;6.502;2023-12-04T05:17:46;1.20;99.90
52555;DHT22;38455;52.710;6.502;2023-12-04T05:20:12;1.20;99.90
52555;DHT22;38455;52.710;6.502;2023-12-04T05:22:38;1.30;99.90
52555;DHT22;38455;52.710;6.502;2023-12-04T05:25:04;1.30;99.90
52555;DHT22;38455;52.710;6.502;2023-12-04T05:27:30;1.30;99.90
52555;DHT22;38455;52.710;6.502;2023-12-04T05:29:55;1.30;99.90
52555;DHT22;38455;52.710;6.502;2023-12-04T05:32:21;1.30;99.90
52555;DHT22;38455;52.710;6.502;2023-12-04T05:34:47;1.30;99.90
52555;DHT22;38455;52.710;6.502;2023-12-04T05:37:12;1.30;99.90
52555;DHT22;38455;52.710;6.502;2023-12-04T05:39:38;1.30;99.90
52555;DHT22;38455;52.710;6.502;2023-12-04T05:42:04;1.30;99.90
52555;DHT22;38455;52.710;6.502;2023-12-04T05:44:30;1.30;99.90
52555;DHT22;38455;52.710;6.502;2023-12-04T05:46:56;1.40;99.90
52555;DHT22;38455;52.710;6.502;2023-12-04T05:49:22;1.30;99.90
52555;DHT22;38455;52.710;6.502;2023-12-04T05:51:47;1.40;99.90
52555;DHT22;38455;52.710;6.502;2023-12-04T05:54:13;1.30;99.90
52555;DHT22;38455;52.710;6.502;2023-12-04T05:56:38;1.40;99.90
52555;DHT22;38455;52.710;6.502;2023-12-04T05:59:04;1.30;99.90
52555;DHT22;38455;52.710;6.502;2023-12-04T06:01:30;1.30;99.90
52555;DHT22;38455;52.710;6.502;2023-12-04T06:03:55;1.30;99.90
52555;DHT22;38455;52.710;6.502;2023-12-04T06:06:21;1.30;99.90
52555;DHT22;38455;52.710;6.502;2023-12-04T06:08:46;1.30;99.90
52555;DHT22;38455;52.710;6.502;2023-12-04T06:11:12;1.30;99.90
52555;DHT22;38455;52.710;6.502;2023-12-04T06:13:38;1.30;99.90
52555;DHT22;38455;52.710;6.502;2023-12-04T06:16:04;1.30;99.90
52555;DHT22;38455;52.710;6.502;2023-12-04T06:18:30;1.20;99.90
52555;DHT22;38455;52.710;6.502;2023-12-04T06:20:56;1.20;99.90
52555;DHT22;38455;52.710;6.502;2023-12-04T06:23:22;1.20;99.90
52555;DHT22;38455;52.710;6.502;2023-12-04T06:25:47;1.20;99.90
52555;DHT22;38455;52.710;6.502;2023-12-04T06:28:13;1.20;99.90
52555;DHT22;38455;52.710;6.502;2023-12-04T06:30:39;1.20;99.90
52555;DHT22;38455;52.710;6.502;2023-12-04T06:33:05;1.20;99.90
52555;DHT22;38455;52.710;6.502;2023-12-04T06:35:31;1.30;99.90
52555;DHT22;38455;52.710;6.502;2023-12-04T06:38:01;1.30;99.90
52555;DHT22;38455;52.710;6.502;2023-12-04T06:40:29;1.30;99.90
52555;DHT22;38455;52.710;6.502;2023-12-04T06:42:54;1.40;99.90
52555;DHT22;38455;52.710;6.502;2023-12-04T06:45:20;1.40;99.90
52555;DHT22;38455;52.710;6.502;2023-12-04T06:47:50;1.40;99.90
52555;DHT22;38455;52.710;6.502;2023-12-04T06:50:16;1.40;99.90
52555;DHT22;38455;52.710;6.502;2023-12-04T06:52:42;1.40;99.90
52555;DHT22;38455;52.710;6.502;2023-12-04T06:55:08;1.40;99.90
52555;DHT22;38455;52.710;6.502;2023-12-04T06:57:34;1.40;99.90
52555;DHT22;38455;52.710;6.502;2023-12-04T06:59:59;1.40;99.90
52555;DHT22;38455;52.710;6.502;2023-12-04T07:02:25;1.40;99.90
52555;DHT22;38455;52.710;6.502;2023-12-04T07:04:51;1.40;99.90
52555;DHT22;38455;52.710;6.502;2023-12-04T07:07:17;1.50;99.90
52555;DHT22;38455;52.710;6.502;2023-12-04T07:09:42;1.50;99.90
52555;DHT22;38455;52.710;6.502;2023-12-04T07:12:08;1.50;99.90
52555;DHT22;38455;52.710;6.502;2023-12-04T07:14:34;1.50;99.90
52555;DHT22;38455;52.710;6.502;2023-12-04T07:17:00;1.50;99.90
52555;DHT22;38455;52.710;6.502;2023-12-04T07:19:25;1.50;99.90
52555;DHT22;38455;52.710;6.502;2023-12-04T07:21:52;1.50;99.90
52555;DHT22;38455;52.710;6.502;2023-12-04T07:24:18;1.50;99.90
52555;DHT22;38455;52.710;6.502;2023-12-04T07:26:44;1.50;99.90
52555;DHT22;38455;52.710;6.502;2023-12-04T07:29:10;1.60;99.90
52555;DHT22;38455;52.710;6.502;2023-12-04T07:31:36;1.50;99.90
52555;DHT22;38455;52.710;6.502;2023-12-04T07:34:02;1.50;99.90
52555;DHT22;38455;52.710;6.502;2023-12-04T07:36:29;1.60;99.90
52555;DHT22;38455;52.710;6.502;2023-12-04T07:38:56;1.50;99.90
52555;DHT22;38455;52.710;6.502;2023-12-04T07:41:21;1.60;99.90
52555;DHT22;38455;52.710;6.502;2023-12-04T07:43:47;1.60;99.90
52555;DHT22;38455;52.710;6.502;2023-12-04T07:46:13;1.60;99.90
52555;DHT22;38455;52.710;6.502;2023-12-04T07:48:39;1.60;99.90
52555;DHT22;38455;52.710;6.502;2023-12-04T07:51:06;1.60;99.90
52555;DHT22;38455;52.710;6.502;2023-12-04T07:53:32;1.70;99.90
52555;DHT22;38455;52.710;6.502;2023-12-04T07:56:00;1.60;99.90
52555;DHT22;38455;52.710;6.502;2023-12-04T07:58:25;1.60;99.90
52555;DHT22;38455;52.710;6.502;2023-12-04T08:00:51;1.60;99.90
52555;DHT22;38455;52.710;6.502;2023-12-04T08:03:17;1.60;99.90
52555;DHT22;38455;52.710;6.502;2023-12-04T08:05:42;1.60;99.90
52555;DHT22;38455;52.710;6.502;2023-12-04T08:08:08;1.60;99.90
52555;DHT22;38455;52.710;6.502;2023-12-04T08:10:33;1.60;99.90
52555;DHT22;38455;52.710;6.502;2023-12-04T08:12:59;1.60;99.90
52555;DHT22;38455;52.710;6.502;2023-12-04T08:15:25;1.60;99.90
52555;DHT22;38455;52.710;6.502;2023-12-04T08:17:51;1.60;99.90
52555;DHT22;38455;52.710;6.502;2023-12-04T08:20:17;1.60;99.90
52555;DHT22;38455;52.710;6.502;2023-12-04T08:22:42;1.70;99.90
52555;DHT22;38455;52.710;6.502;2023-12-04T08:25:11;1.70;99.90
52555;DHT22;38455;52.710;6.502;2023-12-04T08:27:37;1.70;99.90
52555;DHT22;38455;52.710;6.502;2023-12-04T08:30:06;1.60;99.90
52555;DHT22;38455;52.710;6.502;2023-12-04T08:32:32;1.70;99.90
52555;DHT22;38455;52.710;6.502;2023-12-04T08:34:58;1.70;99.90
52555;DHT22;38455;52.710;6.502;2023-12-04T08:37:23;1.70;99.90
52555;DHT22;38455;52.710;6.502;2023-12-04T08:39:49;1.70;99.90
52555;DHT22;38455;52.710;6.502;2023-12-04T08:42:15;1.70;99.90
52555;DHT22;38455;52.710;6.502;2023-12-04T08:44:40;1.70;99.90
52555;DHT22;38455;52.710;6.502;2023-12-04T08:47:06;1.70;99.90
52555;DHT22;38455;52.710;6.502;2023-12-04T08:49:31;1.80;99.90
52555;DHT22;38455;52.710;6.502;2023-12-04T08:51:58;1.80;99.90
52555;DHT22;38455;52.710;6.502;2023-12-04T08:54:24;1.80;99.90
52555;DHT22;38455;52.710;6.502;2023-12-04T08:56:50;1.80;99.90
52555;DHT22;38455;52.710;6.502;2023-12-04T08:59:16;1.90;99.90
52555;DHT22;38455;52.710;6.502;2023-12-04T09:01:42;1.90;99.90
52555;DHT22;38455;52.710;6.502;2023-12-04T09:04:09;1.90;99.90
52555;DHT22;38455;52.710;6.502;2023-12-04T09:06:34;1.90;99.90
52555;DHT22;38455;52.710;6.502;2023-12-04T09:09:00;1.90;99.90
52555;DHT22;38455;52.710;6.502;2023-12-04T09:11:26;2.00;99.90
52555;DHT22;38455;52.710;6.502;2023-12-04T09:13:51;2.00;99.90
52555;DHT22;38455;52.710;6.502;2023-12-04T09:16:17;2.00;99.90
52555;DHT22;38455;52.710;6.502;2023-12-04T09:18:43;2.10;99.90
52555;DHT22;38455;52.710;6.502;2023-12-04T09:21:08;2.10;99.90
52555;DHT22;38455;52.710;6.502;2023-12-04T09:23:35;2.20;99.90
52555;DHT22;38455;52.710;6.502;2023-12-04T09:26:01;2.20;99.90
52555;DHT22;38455;52.710;6.502;2023-12-04T09:28:26;2.30;99.90
52555;DHT22;38455;52.710;6.502;2023-12-04T09:30:52;2.30;99.90
52555;DHT22;38455;52.710;6.502;2023-12-04T09:33:18;2.40;99.90
52555;DHT22;38455;52.710;6.502;2023-12-04T09:35:44;2.40;99.90
52555;DHT22;38455;52.710;6.502;2023-12-04T09:38:10;2.40;99.90
52555;DHT22;38455;52.710;6.502;2023-12-04T09:40:36;2.50;99.90
52555;DHT22;38455;52.710;6.502;2023-12-04T09:43:01;2.50;99.90
52555;DHT22;38455;52.710;6.502;2023-12-04T09:45:29;2.60;99.90
52555;DHT22;38455;52.710;6.502;2023-12-04T09:47:57;2.60;99.90
52555;DHT22;38455;52.710;6.502;2023-12-04T09:50:23;2.60;99.90
52555;DHT22;38455;52.710;6.502;2023-12-04T09:52:50;2.70;99.90
52555;DHT22;38455;52.710;6.502;2023-12-04T09:55:18;2.70;99.90
52555;DHT22;38455;52.710;6.502;2023-12-04T09:57:45;2.80;99.90
52555;DHT22;38455;52.710;6.502;2023-12-04T10:00:13;2.80;99.90
52555;DHT22;38455;52.710;6.502;2023-12-04T10:02:42;2.90;99.90
52555;DHT22;38455;52.710;6.502;2023-12-04T10:05:09;3.00;99.90
52555;DHT22;38455;52.710;6.502;2023-12-04T10:07:35;3.00;99.90
52555;DHT22;38455;52.710;6.502;2023-12-04T10:10:02;3.00;99.90
52555;DHT22;38455;52.710;6.502;2023-12-04T10:12:31;3.10;99.90
52555;DHT22;38455;52.710;6.502;2023-12-04T10:15:11;3.10;99.90
52555;DHT22;38455;52.710;6.502;2023-12-04T10:17:41;3.20;99.90
52555;DHT22;38455;52.710;6.502;2023-12-04T10:22:58;3.30;99.90
52555;DHT22;38455;52.710;6.502;2023-12-04T10:25:25;3.20;99.90
52555;DHT22;38455;52.710;6.502;2023-12-04T10:27:51;3.30;99.90
52555;DHT22;38455;52.710;6.502;2023-12-04T10:30:22;3.20;99.90
52555;DHT22;38455;52.710;6.502;2023-12-04T10:32:48;3.30;99.90
52555;DHT22;38455;52.710;6.502;2023-12-04T10:35:14;3.30;99.90
52555;DHT22;38455;52.710;6.502;2023-12-04T10:37:40;3.40;99.90
52555;DHT22;38455;52.710;6.502;2023-12-04T10:40:06;3.40;99.90
52555;DHT22;38455;52.710;6.502;2023-12-04T10:42:34;3.30;99.90
52555;DHT22;38455;52.710;6.502;2023-12-04T10:45:00;3.30;99.90
52555;DHT22;38455;52.710;6.502;2023-12-04T10:47:30;3.40;99.90
52555;DHT22;38455;52.710;6.502;2023-12-04T10:49:58;3.30;99.90
52555;DHT22;38455;52.710;6.502;2023-12-04T10:52:24;3.30;99.90
52555;DHT22;38455;52.710;6.502;2023-12-04T10:54:50;3.20;99.90
52555;DHT22;38455;52.710;6.502;2023-12-04T10:57:26;3.20;99.90
52555;DHT22;38455;52.710;6.502;2023-12-04T10:59:58;3.20;99.90
52555;DHT22;38455;52.710;6.502;2023-12-04T11:02:29;3.20;99.90
52555;DHT22;38455;52.710;6.502;2023-12-04T11:05:07;3.10;99.90
52555;DHT22;38455;52.710;6.502;2023-12-04T11:08:13;3.10;99.90
52555;DHT22;38455;52.710;6.502;2023-12-04T11:10:33;3.00;99.90
52555;DHT22;38455;52.710;6.502;2023-12-04T11:13:10;3.00;99.90
52555;DHT22;38455;52.710;6.502;2023-12-04T11:15:40;3.00;99.90
52555;DHT22;38455;52.710;6.502;2023-12-04T11:18:11;3.00;99.90
52555;DHT22;38455;52.710;6.502;2023-12-04T11:20:44;3.00;99.90
52555;DHT22;38455;52.710;6.502;2023-12-04T11:23:13;3.00;99.90
52555;DHT22;38455;52.710;6.502;2023-12-04T11:25:43;3.00;99.90
52555;DHT22;38455;52.710;6.502;2023-12-04T11:28:10;3.00;99.90
52555;DHT22;38455;52.710;6.502;2023-12-04T11:30:37;3.10;99.90
52555;DHT22;38455;52.710;6.502;2023-12-04T11:33:05;3.10;99.90
52555;DHT22;38455;52.710;6.502;2023-12-04T11:35:30;3.20;99.90
52555;DHT22;38455;52.710;6.502;2023-12-04T11:37:58;3.20;99.90
52555;DHT22;38455;52.710;6.502;2023-12-04T11:40:24;3.30;99.90
52555;DHT22;38455;52.710;6.502;2023-12-04T11:42:52;3.30;99.90
52555;DHT22;38455;52.710;6.502;2023-12-04T11:45:21;3.30;99.90
52555;DHT22;38455;52.710;6.502;2023-12-04T11:47:57;3.40;99.90
52555;DHT22;38455;52.710;6.502;2023-12-04T11:50:26;3.30;99.90
52555;DHT22;38455;52.710;6.502;2023-12-04T11:52:52;3.30;99.90
52555;DHT22;38455;52.710;6.502;2023-12-04T11:55:22;3.30;99.90
52555;DHT22;38455;52.710;6.502;2023-12-04T11:57:50;3.30;99.90
52555;DHT22;38455;52.710;6.502;2023-12-04T12:00:18;3.20;99.90
52555;DHT22;38455;52.710;6.502;2023-12-04T12:03:02;3.20;99.90
52555;DHT22;38455;52.710;6.502;2023-12-04T12:05:28;3.20;99.90
52555;DHT22;38455;52.710;6.502;2023-12-04T12:07:54;3.10;99.90
52555;DHT22;38455;52.710;6.502;2023-12-04T12:10:20;3.20;99.90
52555;DHT22;38455;52.710;6.502;2023-12-04T12:12:47;3.20;99.90
52555;DHT22;38455;52.710;6.502;2023-12-04T12:15:13;3.20;99.90
52555;DHT22;38455;52.710;6.502;2023-12-04T12:17:40;3.20;99.90
52555;DHT22;38455;52.710;6.502;2023-12-04T12:20:10;3.30;99.90
52555;DHT22;38455;52.710;6.502;2023-12-04T12:22:37;3.20;99.90
52555;DHT22;38455;52.710;6.502;2023-12-04T12:25:08;3.20;99.90
52555;DHT22;38455;52.710;6.502;2023-12-04T12:27:34;3.20;99.90
52555;DHT22;38455;52.710;6.502;2023-12-04T12:30:00;3.20;99.90
52555;DHT22;38455;52.710;6.502;2023-12-04T12:32:26;3.20;99.90
52555;DHT22;38455;52.710;6.502;2023-12-04T12:34:52;3.20;99.90
52555;DHT22;38455;52.710;6.502;2023-12-04T12:37:18;3.20;99.90
52555;DHT22;38455;52.710;6.502;2023-12-04T12:39:44;3.10;99.90
52555;DHT22;38455;52.710;6.502;2023-12-04T12:42:10;3.10;99.90
52555;DHT22;38455;52.710;6.502;2023-12-04T12:44:39;3.10;99.90
52555;DHT22;38455;52.710;6.502;2023-12-04T12:47:08;3.10;99.90
52555;DHT22;38455;52.710;6.502;2023-12-04T12:49:34;3.20;99.90
52555;DHT22;38455;52.710;6.502;2023-12-04T12:52:01;3.10;99.90
52555;DHT22;38455;52.710;6.502;2023-12-04T12:54:27;3.20;99.90
52555;DHT22;38455;52.710;6.502;2023-12-04T12:56:54;3.10;99.90
52555;DHT22;38455;52.710;6.502;2023-12-04T12:59:20;3.10;99.90
52555;DHT22;38455;52.710;6.502;2023-12-04T13:01:48;3.20;99.90
52555;DHT22;38455;52.710;6.502;2023-12-04T13:04:14;3.10;99.90
52555;DHT22;38455;52.710;6.502;2023-12-04T13:06:42;3.10;99.90
52555;DHT22;38455;52.710;6.502;2023-12-04T13:09:08;3.10;99.90
52555;DHT22;38455;52.710;6.502;2023-12-04T13:11:34;3.10;99.90
52555;DHT22;38455;52.710;6.502;2023-12-04T13:14:00;3.10;99.90
52555;DHT22;38455;52.710;6.502;2023-12-04T13:16:26;3.10;99.90
52555;DHT22;38455;52.710;6.502;2023-12-04T13:18:51;3.10;99.90
52555;DHT22;38455;52.710;6.502;2023-12-04T13:21:17;3.00;99.90
52555;DHT22;38455;52.710;6.502;2023-12-04T13:23:43;3.00;99.90
52555;DHT22;38455;52.710;6.502;2023-12-04T13:26:08;2.90;99.90
52555;DHT22;38455;52.710;6.502;2023-12-04T13:28:37;2.90;99.90
52555;DHT22;38455;52.710;6.502;2023-12-04T13:31:04;2.90;99.90
52555;DHT22;38455;52.710;6.502;2023-12-04T13:33:30;2.90;99.90
52555;DHT22;38455;52.710;6.502;2023-12-04T13:35:57;2.80;99.90
52555;DHT22;38455;52.710;6.502;2023-12-04T13:38:22;2.90;99.90
52555;DHT22;38455;52.710;6.502;2023-12-04T13:40:48;2.80;99.90
52555;DHT22;38455;52.710;6.502;2023-12-04T13:43:28;2.80;99.90
52555;DHT22;38455;52.710;6.502;2023-12-04T13:46:13;2.80;99.90
52555;DHT22;38455;52.710;6.502;2023-12-04T13:48:38;2.80;99.90
52555;DHT22;38455;52.710;6.502;2023-12-04T13:51:10;2.70;99.90
52555;DHT22;38455;52.710;6.502;2023-12-04T13:53:36;2.80;99.90
52555;DHT22;38455;52.710;6.502;2023-12-04T13:56:08;2.80;99.90
52555;DHT22;38455;52.710;6.502;2023-12-04T13:58:49;2.70;99.90
52555;DHT22;38455;52.710;6.502;2023-12-04T14:01:25;2.70;99.90
52555;DHT22;38455;52.710;6.502;2023-12-04T14:03:54;2.70;99.90
52555;DHT22;38455;52.710;6.502;2023-12-04T14:06:21;2.70;99.90
52555;DHT22;38455;52.710;6.502;2023-12-04T14:08:47;2.70;99.90
52555;DHT22;38455;52.710;6.502;2023-12-04T14:11:13;2.60;99.90
52555;DHT22;38455;52.710;6.502;2023-12-04T14:13:40;2.60;99.90
52555;DHT22;38455;52.710;6.502;2023-12-04T14:16:06;2.60;99.90
52555;DHT22;38455;52.710;6.502;2023-12-04T14:18:32;2.60;99.90
52555;DHT22;38455;52.710;6.502;2023-12-04T14:20:58;2.50;99.90
52555;DHT22;38455;52.710;6.502;2023-12-04T14:23:24;2.60;99.90
52555;DHT22;38455;52.710;6.502;2023-12-04T14:25:50;2.60;99.90
52555;DHT22;38455;52.710;6.502;2023-12-04T14:28:16;2.60;99.90
52555;DHT22;38455;52.710;6.502;2023-12-04T14:30:41;2.50;99.90
52555;DHT22;38455;52.710;6.502;2023-12-04T14:33:07;2.60;99.90
52555;DHT22;38455;52.710;6.502;2023-12-04T14:35:35;2.60;99.90
52555;DHT22;38455;52.710;6.502;2023-12-04T14:38:03;2.50;99.90
52555;DHT22;38455;52.710;6.502;2023-12-04T14:40:30;2.50;99.90
52555;DHT22;38455;52.710;6.502;2023-12-04T14:42:56;2.50;99.90
52555;DHT22;38455;52.710;6.502;2023-12-04T14:45:21;2.50;99.90
52555;DHT22;38455;52.710;6.502;2023-12-04T14:47:47;2.60;99.90
52555;DHT22;38455;52.710;6.502;2023-12-04T14:50:15;2.60;99.90
52555;DHT22;38455;52.710;6.502;2023-12-04T14:52:41;2.50;99.90
52555;DHT22;38455;52.710;6.502;2023-12-04T14:55:13;2.50;99.90
52555;DHT22;38455;52.710;6.502;2023-12-04T14:57:51;2.50;99.90
52555;DHT22;38455;52.710;6.502;2023-12-04T15:00:43;2.50;99.90
52555;DHT22;38455;52.710;6.502;2023-12-04T15:03:31;2.50;99.90
52555;DHT22;38455;52.710;6.502;2023-12-04T15:06:15;2.50;99.90
52555;DHT22;38455;52.710;6.502;2023-12-04T15:08:41;2.50;99.90
52555;DHT22;38455;52.710;6.502;2023-12-04T15:11:35;2.50;99.90
52555;DHT22;38455;52.710;6.502;2023-12-04T15:14:36;2.60;99.90
52555;DHT22;38455;52.710;6.502;2023-12-04T15:17:02;2.50;99.90
52555;DHT22;38455;52.710;6.502;2023-12-04T15:19:55;2.50;99.90
52555;DHT22;38455;52.710;6.502;2023-12-04T15:22:36;2.50;99.90
52555;DHT22;38455;52.710;6.502;2023-12-04T15:25:03;2.60;99.90
52555;DHT22;38455;52.710;6.502;2023-12-04T15:27:29;2.50;99.90
52555;DHT22;38455;52.710;6.502;2023-12-04T15:29:54;2.60;99.90
52555;DHT22;38455;52.710;6.502;2023-12-04T15:32:20;2.60;99.90
52555;DHT22;38455;52.710;6.502;2023-12-04T15:34:46;2.60;99.90
52555;DHT22;38455;52.710;6.502;2023-12-04T15:37:12;2.60;99.90
52555;DHT22;38455;52.710;6.502;2023-12-04T15:39:38;2.60;99.90
52555;DHT22;38455;52.710;6.502;2023-12-04T15:42:04;2.60;99.90
52555;DHT22;38455;52.710;6.502;2023-12-04T15:44:32;2.60;99.90
52555;DHT22;38455;52.710;6.502;2023-12-04T15:46:58;2.60;99.90